createdAt,value
2019-04-25T00:01:56.412Z,13.79
2019-04-25T00:04:58.312Z,13.75
2019-04-25T00:08:01.520Z,13.72
2019-04-25T00:11:05.709Z,13.67
2019-04-25T00:14:08.472Z,13.66
2019-04-25T00:17:11.366Z,13.58
2019-04-25T00:20:14.102Z,13.54
2019-04-25T00:23:17.761Z,13.45
2019-04-25T00:26:37.893Z,13.44
2019-04-25T00:29:41.792Z,13.37
2019-04-25T00:32:44.208Z,13.27
2019-04-25T00:35:46.444Z,13.19
2019-04-25T00:38:49.269Z,13.18
2019-04-25T00:41:52.127Z,13.15
2019-04-25T00:44:54.123Z,13.12
2019-04-25T00:47:56.094Z,13.04
2019-04-25T00:50:58.017Z,13.01
2019-04-25T00:53:59.944Z,13.01
2019-04-25T00:57:02.237Z,12.92
2019-04-25T01:00:27.623Z,12.81
2019-04-25T01:03:31.751Z,12.76
2019-04-25T01:06:33.991Z,12.71
2019-04-25T01:09:35.918Z,12.74
2019-04-25T01:12:39.610Z,12.81
2019-04-25T01:15:42.520Z,12.85
2019-04-25T01:18:45.418Z,12.87
2019-04-25T01:21:47.557Z,12.88
2019-04-25T01:24:49.659Z,12.85
2019-04-25T01:27:52.225Z,12.85
2019-04-25T01:30:56.173Z,12.87
2019-04-25T01:33:58.650Z,12.90
2019-04-25T01:37:18.992Z,12.89
2019-04-25T01:40:39.537Z,12.81
2019-04-25T01:43:59.678Z,12.69
2019-04-25T01:47:01.735Z,12.57
2019-04-25T01:50:05.055Z,12.55
2019-04-25T01:53:08.172Z,12.59
2019-04-25T01:56:10.126Z,12.64
2019-04-25T01:59:13.763Z,12.66
2019-04-25T02:02:17.737Z,12.60
2019-04-25T02:05:19.822Z,12.54
2019-04-25T02:08:21.693Z,12.47
2019-04-25T02:11:26.743Z,12.41
2019-04-25T02:14:28.823Z,12.37
2019-04-25T02:17:30.842Z,12.31
2019-04-25T02:20:33.923Z,12.25
2019-04-25T02:23:36.028Z,12.18
2019-04-25T02:26:37.944Z,12.12
2019-04-25T02:29:39.932Z,12.09
2019-04-25T02:32:44.043Z,12.06
2019-04-25T02:35:46.841Z,12.04
2019-04-25T02:38:49.133Z,11.95
2019-04-25T02:41:51.135Z,11.87
2019-04-25T02:44:57.906Z,11.87
2019-04-25T02:48:01.463Z,11.85
2019-04-25T02:51:17.246Z,11.77
2019-04-25T02:54:19.149Z,11.78
2019-04-25T02:57:21.141Z,11.82
2019-04-25T03:00:27.666Z,11.99
2019-04-25T03:03:29.703Z,12.16
2019-04-25T03:06:31.621Z,12.18
2019-04-25T03:09:35.214Z,12.14
2019-04-25T03:12:37.426Z,12.03
2019-04-25T03:15:39.367Z,11.83
2019-04-25T03:18:46.004Z,11.70
2019-04-25T03:21:54.955Z,11.57
2019-04-25T03:24:56.297Z,11.49
2019-04-25T03:27:59.429Z,11.53
2019-04-25T03:31:03.900Z,11.74
2019-04-25T03:34:09.508Z,11.73
2019-04-25T03:37:09.497Z,11.59
2019-04-25T03:40:12.275Z,11.54
2019-04-25T03:43:15.486Z,11.53
2019-04-25T03:46:18.689Z,11.48
2019-04-25T03:49:20.745Z,11.51
2019-04-25T03:52:23.884Z,11.60
2019-04-25T03:55:26.179Z,11.80
2019-04-25T03:58:28.149Z,11.85
2019-04-25T04:01:30.781Z,11.89
2019-04-25T04:04:33.537Z,12.09
2019-04-25T04:07:35.797Z,12.32
2019-04-25T04:10:37.784Z,12.61
2019-04-25T04:13:39.751Z,13.33
2019-04-25T04:16:44.342Z,14.19
2019-04-25T04:19:54.660Z,14.92
2019-04-25T04:23:05.578Z,15.63
2019-04-25T04:26:08.470Z,16.38
2019-04-25T04:29:10.422Z,16.81
2019-04-25T04:32:12.914Z,16.97
2019-04-25T04:35:17.473Z,17.35
2019-04-25T04:38:19.735Z,17.95
2019-04-25T04:41:21.733Z,19.00
2019-04-25T04:44:24.100Z,20.01
2019-04-25T04:47:26.447Z,21.16
2019-04-25T04:50:28.347Z,22.05
2019-04-25T04:53:30.308Z,22.38
2019-04-25T04:56:34.065Z,22.44
2019-04-25T04:59:36.099Z,22.35
2019-04-25T05:02:43.404Z,22.01
2019-04-25T05:05:53.574Z,22.29
2019-04-25T05:08:58.897Z,23.40
2019-04-25T05:12:01.178Z,23.84
2019-04-25T05:15:06.259Z,23.76
2019-04-25T05:18:08.218Z,24.11
2019-04-25T05:21:10.315Z,25.03
2019-04-25T05:24:13.462Z,25.86
2019-04-25T05:27:24.950Z,25.66
2019-04-25T05:30:23.618Z,25.14
2019-04-25T05:33:26.220Z,24.20
2019-04-25T05:36:29.958Z,23.50
2019-04-25T05:39:33.451Z,23.27
2019-04-25T05:42:49.921Z,23.85
2019-04-25T05:45:51.922Z,24.26
2019-04-25T05:48:53.896Z,24.24
2019-04-25T05:51:55.892Z,25.09
2019-04-25T05:54:57.840Z,26.32
2019-04-25T05:57:59.803Z,27.36
2019-04-25T06:01:03.300Z,28.00
2019-04-25T06:04:05.579Z,28.20
2019-04-25T06:07:07.614Z,27.75
2019-04-25T06:10:11.908Z,27.16
2019-04-25T06:13:31.179Z,26.54
2019-04-25T06:16:33.703Z,26.69
2019-04-25T06:19:37.476Z,27.16
2019-04-25T06:22:58.019Z,27.53
2019-04-25T06:26:00.016Z,27.20
2019-04-25T06:29:03.301Z,27.16
2019-04-25T06:32:08.524Z,27.58
2019-04-25T06:35:09.845Z,28.22
2019-04-25T06:38:13.224Z,28.85
2019-04-25T06:41:15.588Z,28.84
2019-04-25T06:44:32.977Z,28.60
2019-04-25T06:47:44.266Z,28.46
2019-04-25T06:50:46.417Z,29.03
2019-04-25T06:53:48.350Z,29.91
2019-04-25T06:56:50.393Z,31.13
2019-04-25T06:59:53.302Z,32.12
2019-04-25T07:02:55.348Z,32.91
2019-04-25T07:05:58.802Z,33.37
2019-04-25T07:09:00.729Z,33.76
2019-04-25T07:12:03.614Z,34.09
2019-04-25T07:15:08.576Z,34.46
2019-04-25T07:18:10.464Z,34.40
2019-04-25T07:21:14.081Z,34.66
2019-04-25T07:24:17.615Z,34.83
2019-04-25T07:27:38.274Z,34.74
2019-04-25T07:30:54.600Z,34.55
2019-04-25T07:33:58.344Z,34.43
2019-04-25T07:37:00.278Z,33.83
2019-04-25T07:40:04.955Z,34.03
2019-04-25T07:43:07.378Z,34.32
2019-04-25T07:46:09.342Z,34.33
2019-04-25T07:49:11.266Z,34.67
2019-04-25T07:52:13.634Z,34.88
2019-04-25T07:55:15.922Z,34.40
2019-04-25T07:58:17.908Z,34.53
2019-04-25T08:01:20.068Z,34.68
2019-04-25T08:04:23.563Z,34.76
2019-04-25T08:07:25.912Z,35.16
2019-04-25T08:10:31.880Z,34.98
2019-04-25T08:13:39.900Z,34.76
2019-04-25T08:16:44.552Z,34.62
2019-04-25T08:19:46.947Z,34.45
2019-04-25T08:22:56.508Z,34.29
2019-04-25T08:25:54.371Z,34.22
2019-04-25T08:28:57.813Z,34.18
2019-04-25T08:32:00.234Z,34.05
2019-04-25T08:35:03.859Z,34.09
2019-04-25T08:38:07.105Z,33.88
2019-04-25T08:41:09.025Z,33.67
2019-04-25T08:44:11.016Z,33.44
2019-04-25T08:47:14.442Z,33.24
2019-04-25T08:50:28.974Z,33.19
2019-04-25T08:53:24.346Z,33.06
2019-04-25T08:56:28.123Z,32.91
2019-04-25T08:59:48.285Z,32.77
2019-04-25T09:02:49.863Z,32.73
2019-04-25T09:05:53.416Z,32.21
2019-04-25T09:08:55.615Z,31.89
2019-04-25T09:11:57.504Z,31.63
2019-04-25T09:14:59.441Z,31.23
2019-04-25T09:18:01.395Z,30.83
2019-04-25T09:21:03.950Z,30.58
2019-04-25T09:24:06.016Z,30.39
2019-04-25T09:27:08.010Z,30.14
2019-04-25T09:30:10.030Z,30.09
2019-04-25T09:33:13.285Z,29.96
2019-04-25T09:36:15.440Z,29.73
2019-04-25T09:39:37.546Z,29.48
2019-04-25T09:42:40.350Z,29.33
2019-04-25T09:45:47.383Z,29.12
2019-04-25T09:48:59.787Z,29.12
2019-04-25T09:52:03.574Z,29.08
2019-04-25T09:55:07.510Z,28.85
2019-04-25T09:58:15.227Z,28.56
2019-04-25T10:01:17.561Z,28.13
2019-04-25T10:04:22.886Z,28.15
2019-04-25T10:07:24.367Z,28.20
2019-04-25T10:10:26.852Z,28.28
2019-04-25T10:13:29.029Z,28.21
2019-04-25T10:16:30.933Z,28.29
2019-04-25T10:19:34.461Z,28.28
2019-04-25T10:22:36.951Z,28.24
2019-04-25T10:25:39.589Z,28.37
2019-04-25T10:28:43.708Z,28.43
2019-04-25T10:31:45.778Z,28.13
2019-04-25T10:34:47.688Z,28.22
2019-04-25T10:37:49.748Z,28.28
2019-04-25T10:40:53.613Z,28.41
2019-04-25T10:43:56.172Z,28.44
2019-04-25T10:46:58.348Z,28.44
2019-04-25T10:50:00.336Z,28.36
2019-04-25T10:53:03.918Z,28.43
2019-04-25T10:56:06.163Z,28.38
2019-04-25T10:59:08.187Z,28.48
2019-04-25T11:02:11.156Z,28.52
2019-04-25T11:05:15.034Z,28.48
2019-04-25T11:08:17.027Z,28.47
2019-04-25T11:11:19.020Z,28.56
2019-04-25T11:14:21.555Z,28.28
2019-04-25T11:17:24.281Z,28.25
2019-04-25T11:20:29.400Z,28.23
2019-04-25T11:23:31.534Z,28.17
2019-04-25T11:26:34.609Z,28.26
2019-04-25T11:29:36.803Z,28.38
2019-04-25T11:32:38.815Z,28.42
2019-04-25T11:35:40.883Z,28.43
2019-04-25T11:38:45.319Z,28.47
2019-04-25T11:41:48.642Z,28.57
2019-04-25T11:44:52.713Z,28.56
2019-04-25T11:47:55.515Z,28.50
2019-04-25T11:50:57.451Z,28.39
2019-04-25T11:53:59.365Z,27.87
2019-04-25T11:57:01.303Z,27.67
2019-04-25T12:00:07.095Z,27.66
2019-04-25T12:03:10.688Z,27.83
2019-04-25T12:06:14.160Z,27.82
2019-04-25T12:09:17.477Z,27.84
2019-04-25T12:12:19.548Z,27.95
2019-04-25T12:15:21.475Z,28.13
2019-04-25T12:18:23.494Z,27.88
2019-04-25T12:21:25.451Z,27.78
2019-04-25T12:24:27.521Z,27.97
2019-04-25T12:27:29.398Z,28.07
2019-04-25T12:30:38.150Z,28.22
2019-04-25T12:33:35.232Z,28.11
2019-04-25T12:36:37.235Z,27.82
2019-04-25T12:39:39.150Z,27.46
2019-04-25T12:42:41.110Z,27.54
2019-04-25T12:45:51.054Z,27.82
2019-04-25T12:48:53.680Z,27.81
2019-04-25T12:51:56.709Z,27.34
2019-04-25T12:54:58.781Z,27.01
2019-04-25T12:58:00.866Z,27.06
2019-04-25T13:01:04.455Z,27.12
2019-04-25T13:04:06.549Z,27.22
2019-04-25T13:07:08.634Z,27.38
2019-04-25T13:10:11.328Z,27.57
2019-04-25T13:13:15.012Z,27.34
2019-04-25T13:16:17.279Z,27.19
2019-04-25T13:19:23.913Z,27.04
2019-04-25T13:22:23.227Z,26.93
2019-04-25T13:25:25.121Z,26.86
2019-04-25T13:28:35.144Z,26.75
2019-04-25T13:31:51.075Z,26.80
2019-04-25T13:34:58.681Z,26.75
2019-04-25T13:38:01.351Z,26.71
2019-04-25T13:41:04.086Z,26.58
2019-04-25T13:44:07.085Z,26.57
2019-04-25T13:47:09.446Z,26.46
2019-04-25T13:50:12.945Z,26.51
2019-04-25T13:53:16.264Z,26.39
2019-04-25T13:56:18.347Z,26.43
2019-04-25T13:59:21.698Z,26.56
2019-04-25T14:02:25.279Z,26.41
2019-04-25T14:05:28.275Z,26.41
2019-04-25T14:08:31.534Z,26.19
2019-04-25T14:11:34.517Z,26.17
2019-04-25T14:14:37.617Z,26.39
2019-04-25T14:17:50.343Z,26.48
2019-04-25T14:20:54.126Z,26.30
2019-04-25T14:23:56.071Z,26.34
2019-04-25T14:26:58.024Z,26.30
2019-04-25T14:29:59.932Z,26.21
2019-04-25T14:33:03.591Z,26.30
2019-04-25T14:36:05.805Z,26.32
2019-04-25T14:39:07.758Z,26.37
2019-04-25T14:42:11.793Z,26.38
2019-04-25T14:45:13.983Z,26.44
2019-04-25T14:48:17.137Z,26.20
2019-04-25T14:51:20.687Z,26.19
2019-04-25T14:54:28.469Z,26.15
2019-04-25T14:57:31.909Z,26.11
2019-04-25T15:00:35.743Z,26.04
2019-04-25T15:03:37.787Z,26.00
2019-04-25T15:06:39.797Z,25.95
2019-04-25T15:09:41.748Z,26.00
2019-04-25T15:12:43.720Z,26.02
2019-04-25T15:15:45.646Z,26.12
2019-04-25T15:18:47.564Z,26.10
2019-04-25T15:21:49.451Z,26.15
2019-04-25T15:24:51.369Z,26.11
2019-04-25T15:27:53.378Z,26.10
2019-04-25T15:30:55.248Z,26.08
2019-04-25T15:33:57.127Z,26.12
2019-04-25T15:37:04.036Z,26.20
2019-04-25T15:40:16.907Z,26.20
2019-04-25T15:43:27.569Z,26.16
2019-04-25T15:46:34.938Z,26.00
2019-04-25T15:49:37.002Z,26.03
2019-04-25T15:52:39.157Z,26.04
2019-04-25T15:55:41.089Z,26.02
2019-04-25T15:58:42.994Z,25.98
2019-04-25T16:01:44.973Z,25.96
2019-04-25T16:04:46.934Z,26.00
2019-04-25T16:07:48.944Z,26.13
2019-04-25T16:10:50.972Z,26.19
2019-04-25T16:13:53.034Z,26.14
2019-04-25T16:16:54.966Z,26.29
2019-04-25T16:19:56.908Z,26.36
2019-04-25T16:22:58.774Z,26.42
2019-04-25T16:26:00.782Z,26.46
2019-04-25T16:29:02.716Z,26.30
2019-04-25T16:32:06.525Z,26.36
2019-04-25T16:35:08.530Z,26.41
2019-04-25T16:38:10.814Z,26.39
2019-04-25T16:41:14.450Z,26.35
2019-04-25T16:44:21.015Z,26.30
2019-04-25T16:47:24.832Z,26.26
2019-04-25T16:50:29.041Z,26.23
2019-04-25T16:53:32.648Z,26.24
2019-04-25T16:56:34.632Z,26.19
2019-04-25T16:59:37.651Z,26.16
2019-04-25T17:02:41.351Z,26.05
2019-04-25T17:05:43.497Z,25.97
2019-04-25T17:08:45.474Z,25.89
2019-04-25T17:11:47.383Z,25.83
2019-04-25T17:14:54.153Z,25.77
2019-04-25T17:17:57.994Z,25.70
2019-04-25T17:21:04.952Z,25.66
2019-04-25T17:24:07.876Z,25.60
2019-04-25T17:27:10.712Z,25.54
2019-04-25T17:30:13.718Z,25.49
2019-04-25T17:33:26.232Z,25.42
2019-04-25T17:36:33.131Z,25.31
2019-04-25T17:39:35.695Z,25.23
2019-04-25T17:42:40.984Z,24.98
2019-04-25T17:45:43.844Z,24.67
2019-04-25T17:48:46.136Z,24.42
2019-04-25T17:51:48.032Z,24.23
2019-04-25T17:54:50.121Z,24.13
2019-04-25T17:57:52.145Z,24.02
2019-04-25T18:00:54.186Z,23.90
2019-04-25T18:03:56.111Z,23.73
2019-04-25T18:06:58.105Z,23.57
2019-04-25T18:10:00.066Z,23.34
2019-04-25T18:13:02.154Z,23.34
2019-04-25T18:16:21.221Z,23.24
2019-04-25T18:19:28.077Z,23.24
2019-04-25T18:22:43.604Z,23.13
2019-04-25T18:25:50.206Z,23.00
2019-04-25T18:29:09.106Z,23.00
2019-04-25T18:32:15.039Z,22.95
2019-04-25T18:35:27.746Z,22.78
2019-04-25T18:38:31.889Z,22.66
2019-04-25T18:41:37.661Z,22.66
2019-04-25T18:44:40.018Z,22.72
2019-04-25T18:47:42.442Z,22.52
2019-04-25T18:50:44.703Z,22.52
2019-04-25T18:53:57.067Z,22.21
2019-04-25T18:57:01.859Z,21.72
2019-04-25T19:00:07.566Z,21.27
2019-04-25T19:03:22.460Z,20.91
2019-04-25T19:06:21.574Z,20.70
2019-04-25T19:09:23.677Z,20.35
2019-04-25T19:12:29.963Z,20.27
2019-04-25T19:15:32.927Z,20.21
2019-04-25T19:18:36.208Z,20.05
2019-04-25T19:21:39.188Z,19.94
2019-04-25T19:24:44.967Z,19.94
2019-04-25T19:27:46.574Z,20.05
2019-04-25T19:30:49.655Z,20.04
2019-04-25T19:33:51.762Z,19.94
2019-04-25T19:36:53.716Z,19.83
2019-04-25T19:39:58.838Z,19.78
2019-04-25T19:43:02.961Z,19.67
2019-04-25T19:46:06.159Z,19.62
2019-04-25T19:49:08.084Z,19.64
2019-04-25T19:52:10.010Z,19.61
2019-04-25T19:55:11.990Z,19.31
2019-04-25T19:58:16.493Z,18.85
2019-04-25T20:01:21.209Z,18.64
2019-04-25T20:04:37.200Z,18.63
2019-04-25T20:07:43.773Z,18.61
2019-04-25T20:10:55.739Z,18.48
2019-04-25T20:13:58.290Z,18.46
2019-04-25T20:17:00.271Z,18.31
2019-04-25T20:20:05.224Z,18.20
2019-04-25T20:23:07.908Z,17.94
2019-04-25T20:26:09.994Z,17.67
2019-04-25T20:29:12.443Z,17.47
2019-04-25T20:32:15.913Z,17.35
2019-04-25T20:35:17.874Z,17.26
2019-04-25T20:38:21.619Z,17.19
2019-04-25T20:41:23.563Z,17.16
2019-04-25T20:44:26.876Z,17.20
2019-04-25T20:47:28.891Z,17.33
2019-04-25T20:50:30.788Z,17.45
2019-04-25T20:53:33.265Z,17.48
2019-04-25T20:56:35.158Z,17.48
2019-04-25T20:59:37.231Z,17.49
2019-04-25T21:02:39.128Z,17.45
2019-04-25T21:05:41.582Z,17.31
2019-04-25T21:08:43.505Z,17.33
2019-04-25T21:11:45.410Z,17.34
2019-04-25T21:14:52.812Z,17.38
2019-04-25T21:18:14.849Z,17.42
2019-04-25T21:21:16.743Z,17.30
2019-04-25T21:24:18.763Z,17.27
2019-04-25T21:27:20.638Z,17.25
2019-04-25T21:30:22.669Z,17.26
2019-04-25T21:33:24.586Z,17.29
2019-04-25T21:36:26.893Z,17.25
2019-04-25T21:39:49.265Z,17.25
2019-04-25T21:42:56.225Z,17.26
2019-04-25T21:46:03.026Z,17.13
2019-04-25T21:49:17.045Z,17.08
2019-04-25T21:52:24.333Z,17.00
2019-04-25T21:55:27.715Z,16.90
2019-04-25T21:58:42.530Z,16.79
2019-04-25T22:01:47.785Z,16.71
2019-04-25T22:04:55.694Z,16.67
2019-04-25T22:08:02.531Z,16.59
2019-04-25T22:11:10.311Z,16.52
2019-04-25T22:14:13.182Z,16.55
2019-04-25T22:17:15.508Z,16.50
2019-04-25T22:20:17.811Z,16.53
2019-04-25T22:23:19.723Z,16.53
2019-04-25T22:26:21.973Z,16.54
2019-04-25T22:29:24.620Z,16.57
2019-04-25T22:32:34.625Z,16.49
2019-04-25T22:35:38.419Z,16.27
2019-04-25T22:38:40.981Z,16.06
2019-04-25T22:41:46.615Z,15.92
2019-04-25T22:44:48.286Z,15.97
2019-04-25T22:47:50.237Z,15.98
2019-04-25T22:50:52.464Z,16.01
2019-04-25T22:53:54.435Z,16.08
2019-04-25T22:56:56.421Z,16.08
2019-04-25T22:59:58.666Z,16.05
2019-04-25T23:03:05.535Z,15.98
2019-04-25T23:06:07.651Z,16.04
2019-04-25T23:09:10.170Z,16.01
2019-04-25T23:12:13.975Z,16.08
2019-04-25T23:15:17.508Z,16.12
2019-04-25T23:18:20.028Z,16.17
2019-04-25T23:21:21.888Z,16.19
2019-04-25T23:24:25.618Z,16.18
2019-04-25T23:27:32.532Z,16.13
2019-04-25T23:30:36.235Z,16.06
2019-04-25T23:33:38.210Z,15.99
2019-04-25T23:36:40.428Z,15.88
2019-04-25T23:39:42.349Z,15.80
2019-04-25T23:42:44.336Z,15.78
2019-04-25T23:45:46.297Z,15.78
2019-04-25T23:48:48.538Z,15.80
2019-04-25T23:51:50.482Z,15.85
2019-04-25T23:54:52.402Z,15.84
2019-04-25T23:57:54.649Z,15.83
